sensor_id;sensor_type;location;lat;lon;timestamp;P1;durP1;ratioP1;P2;durP2;ratioP2
60730;SDS011;46580;52.114;11.674;2022-12-24T00:01:12;11.90;;;7.30;;
60730;SDS011;46580;52.114;11.674;2022-12-24T00:03:37;11.83;;;6.97;;
60730;SDS011;46580;52.114;11.674;2022-12-24T00:06:06;10.43;;;6.13;;
60730;SDS011;46580;52.114;11.674;2022-12-24T00:08:33;10.80;;;6.33;;
60730;SDS011;46580;52.114;11.674;2022-12-24T00:10:59;10.23;;;6.13;;
60730;SDS011;46580;52.114;11.674;2022-12-24T00:13:24;10.83;;;6.57;;
60730;SDS011;46580;52.114;11.674;2022-12-24T00:15:50;9.33;;;5.97;;
60730;SDS011;46580;52.114;11.674;2022-12-24T00:18:15;9.30;;;5.70;;
60730;SDS011;46580;52.114;11.674;2022-12-24T00:20:40;8.63;;;5.73;;
60730;SDS011;46580;52.114;11.674;2022-12-24T00:23:06;9.30;;;5.63;;
60730;SDS011;46580;52.114;11.674;2022-12-24T00:25:31;11.50;;;5.63;;
60730;SDS011;46580;52.114;11.674;2022-12-24T00:27:56;9.20;;;6.00;;
60730;SDS011;46580;52.114;11.674;2022-12-24T00:30:22;11.60;;;6.33;;
60730;SDS011;46580;52.114;11.674;2022-12-24T00:32:47;9.40;;;5.80;;
60730;SDS011;46580;52.114;11.674;2022-12-24T00:35:13;7.37;;;5.33;;
60730;SDS011;46580;52.114;11.674;2022-12-24T00:37:38;10.10;;;6.73;;
60730;SDS011;46580;52.114;11.674;2022-12-24T00:40:03;8.23;;;5.33;;
60730;SDS011;46580;52.114;11.674;2022-12-24T00:42:29;7.47;;;5.43;;
60730;SDS011;46580;52.114;11.674;2022-12-24T00:44:54;9.00;;;6.13;;
60730;SDS011;46580;52.114;11.674;2022-12-24T00:47:20;7.57;;;4.97;;
60730;SDS011;46580;52.114;11.674;2022-12-24T00:49:45;10.17;;;6.40;;
60730;SDS011;46580;52.114;11.674;2022-12-24T00:52:11;11.50;;;6.67;;
60730;SDS011;46580;52.114;11.674;2022-12-24T00:54:36;11.97;;;6.20;;
60730;SDS011;46580;52.114;11.674;2022-12-24T00:57:01;12.37;;;6.70;;
60730;SDS011;46580;52.114;11.674;2022-12-24T00:59:27;9.70;;;6.33;;
60730;SDS011;46580;52.114;11.674;2022-12-24T01:01:52;10.97;;;7.07;;
60730;SDS011;46580;52.114;11.674;2022-12-24T01:04:17;9.63;;;5.97;;
60730;SDS011;46580;52.114;11.674;2022-12-24T01:07:09;9.93;;;5.93;;
60730;SDS011;46580;52.114;11.674;2022-12-24T01:09:34;11.87;;;7.73;;
60730;SDS011;46580;52.114;11.674;2022-12-24T01:11:59;15.77;;;9.40;;
60730;SDS011;46580;52.114;11.674;2022-12-24T01:14:25;18.70;;;10.73;;
60730;SDS011;46580;52.114;11.674;2022-12-24T01:16:50;19.50;;;10.83;;
60730;SDS011;46580;52.114;11.674;2022-12-24T01:19:15;16.87;;;10.37;;
60730;SDS011;46580;52.114;11.674;2022-12-24T01:21:41;22.33;;;11.40;;
60730;SDS011;46580;52.114;11.674;2022-12-24T01:24:08;21.57;;;11.30;;
60730;SDS011;46580;52.114;11.674;2022-12-24T01:26:38;23.90;;;10.93;;
60730;SDS011;46580;52.114;11.674;2022-12-24T01:29:03;19.93;;;11.40;;
60730;SDS011;46580;52.114;11.674;2022-12-24T01:31:30;20.67;;;10.97;;
60730;SDS011;46580;52.114;11.674;2022-12-24T01:33:55;21.43;;;10.83;;
60730;SDS011;46580;52.114;11.674;2022-12-24T01:36:21;19.37;;;11.07;;
60730;SDS011;46580;52.114;11.674;2022-12-24T01:38:46;20.07;;;10.97;;
60730;SDS011;46580;52.114;11.674;2022-12-24T01:41:18;20.30;;;11.43;;
60730;SDS011;46580;52.114;11.674;2022-12-24T01:46:42;19.93;;;10.43;;
60730;SDS011;46580;52.114;11.674;2022-12-24T01:49:08;20.10;;;10.57;;
60730;SDS011;46580;52.114;11.674;2022-12-24T01:51:43;17.73;;;10.63;;
60730;SDS011;46580;52.114;11.674;2022-12-24T01:54:15;17.00;;;9.60;;
60730;SDS011;46580;52.114;11.674;2022-12-24T01:56:45;22.40;;;11.13;;
60730;SDS011;46580;52.114;11.674;2022-12-24T01:59:15;19.67;;;11.80;;
60730;SDS011;46580;52.114;11.674;2022-12-24T02:01:43;19.60;;;11.50;;
60730;SDS011;46580;52.114;11.674;2022-12-24T02:04:32;19.80;;;10.23;;
60730;SDS011;46580;52.114;11.674;2022-12-24T02:07:02;18.57;;;10.73;;
60730;SDS011;46580;52.114;11.674;2022-12-24T02:09:28;18.17;;;10.10;;
60730;SDS011;46580;52.114;11.674;2022-12-24T02:11:54;20.57;;;10.60;;
60730;SDS011;46580;52.114;11.674;2022-12-24T02:14:20;19.70;;;10.43;;
60730;SDS011;46580;52.114;11.674;2022-12-24T02:22:45;21.73;;;11.67;;
60730;SDS011;46580;52.114;11.674;2022-12-24T02:25:45;17.87;;;10.53;;
60730;SDS011;46580;52.114;11.674;2022-12-24T02:30:42;16.60;;;9.47;;
60730;SDS011;46580;52.114;11.674;2022-12-24T02:33:44;20.17;;;10.67;;
60730;SDS011;46580;52.114;11.674;2022-12-24T02:36:24;17.73;;;10.37;;
60730;SDS011;46580;52.114;11.674;2022-12-24T02:41:22;20.67;;;11.77;;
60730;SDS011;46580;52.114;11.674;2022-12-24T02:44:20;20.57;;;10.70;;
60730;SDS011;46580;52.114;11.674;2022-12-24T02:46:47;18.17;;;10.50;;
60730;SDS011;46580;52.114;11.674;2022-12-24T02:49:13;19.67;;;11.07;;
60730;SDS011;46580;52.114;11.674;2022-12-24T02:51:39;21.70;;;12.03;;
60730;SDS011;46580;52.114;11.674;2022-12-24T02:54:04;20.63;;;11.23;;
60730;SDS011;46580;52.114;11.674;2022-12-24T02:56:36;17.23;;;9.70;;
60730;SDS011;46580;52.114;11.674;2022-12-24T03:05:45;21.33;;;12.00;;
60730;SDS011;46580;52.114;11.674;2022-12-24T03:08:29;23.50;;;11.20;;
60730;SDS011;46580;52.114;11.674;2022-12-24T03:11:10;23.90;;;12.07;;
60730;SDS011;46580;52.114;11.674;2022-12-24T03:13:38;21.93;;;11.43;;
60730;SDS011;46580;52.114;11.674;2022-12-24T03:16:06;20.53;;;11.57;;
60730;SDS011;46580;52.114;11.674;2022-12-24T03:18:35;21.00;;;11.47;;
60730;SDS011;46580;52.114;11.674;2022-12-24T03:21:11;18.83;;;10.30;;
60730;SDS011;46580;52.114;11.674;2022-12-24T03:23:40;19.97;;;11.03;;
60730;SDS011;46580;52.114;11.674;2022-12-24T03:26:06;19.60;;;11.27;;
60730;SDS011;46580;52.114;11.674;2022-12-24T03:28:35;22.87;;;11.60;;
60730;SDS011;46580;52.114;11.674;2022-12-24T03:31:03;21.07;;;10.87;;
60730;SDS011;46580;52.114;11.674;2022-12-24T03:33:30;21.63;;;11.53;;
60730;SDS011;46580;52.114;11.674;2022-12-24T03:35:55;22.73;;;11.63;;
60730;SDS011;46580;52.114;11.674;2022-12-24T03:38:22;21.57;;;11.00;;
60730;SDS011;46580;52.114;11.674;2022-12-24T03:40:47;25.53;;;11.57;;
60730;SDS011;46580;52.114;11.674;2022-12-24T03:43:12;21.60;;;12.30;;
60730;SDS011;46580;52.114;11.674;2022-12-24T03:45:37;19.17;;;10.87;;
60730;SDS011;46580;52.114;11.674;2022-12-24T03:48:03;20.33;;;10.87;;
60730;SDS011;46580;52.114;11.674;2022-12-24T03:50:29;20.00;;;10.43;;
60730;SDS011;46580;52.114;11.674;2022-12-24T03:52:54;18.13;;;10.20;;
60730;SDS011;46580;52.114;11.674;2022-12-24T03:55:20;20.13;;;11.20;;
60730;SDS011;46580;52.114;11.674;2022-12-24T03:57:45;20.60;;;11.27;;
60730;SDS011;46580;52.114;11.674;2022-12-24T04:00:11;17.73;;;10.67;;
60730;SDS011;46580;52.114;11.674;2022-12-24T04:02:36;20.83;;;11.17;;
60730;SDS011;46580;52.114;11.674;2022-12-24T04:05:02;24.20;;;11.83;;
60730;SDS011;46580;52.114;11.674;2022-12-24T04:07:28;22.43;;;12.40;;
60730;SDS011;46580;52.114;11.674;2022-12-24T04:09:53;19.07;;;11.57;;
60730;SDS011;46580;52.114;11.674;2022-12-24T04:12:18;20.60;;;11.47;;
60730;SDS011;46580;52.114;11.674;2022-12-24T04:14:44;19.17;;;10.83;;
60730;SDS011;46580;52.114;11.674;2022-12-24T04:17:09;20.63;;;10.50;;
60730;SDS011;46580;52.114;11.674;2022-12-24T04:19:34;19.63;;;10.27;;
60730;SDS011;46580;52.114;11.674;2022-12-24T04:22:00;24.53;;;11.83;;
60730;SDS011;46580;52.114;11.674;2022-12-24T04:24:25;21.83;;;11.27;;
60730;SDS011;46580;52.114;11.674;2022-12-24T04:26:50;24.23;;;11.60;;
60730;SDS011;46580;52.114;11.674;2022-12-24T04:29:16;23.43;;;11.90;;
60730;SDS011;46580;52.114;11.674;2022-12-24T04:31:41;19.87;;;10.43;;
60730;SDS011;46580;52.114;11.674;2022-12-24T04:34:07;21.87;;;11.07;;
60730;SDS011;46580;52.114;11.674;2022-12-24T04:36:32;24.67;;;12.07;;
60730;SDS011;46580;52.114;11.674;2022-12-24T04:38:57;23.77;;;11.93;;
60730;SDS011;46580;52.114;11.674;2022-12-24T04:41:23;27.03;;;11.70;;
60730;SDS011;46580;52.114;11.674;2022-12-24T04:43:48;25.13;;;11.83;;
60730;SDS011;46580;52.114;11.674;2022-12-24T04:46:16;25.60;;;12.63;;
60730;SDS011;46580;52.114;11.674;2022-12-24T04:48:44;20.67;;;10.10;;
60730;SDS011;46580;52.114;11.674;2022-12-24T04:51:13;24.93;;;11.57;;
60730;SDS011;46580;52.114;11.674;2022-12-24T04:53:40;26.00;;;12.40;;
60730;SDS011;46580;52.114;11.674;2022-12-24T04:56:08;23.50;;;11.40;;
60730;SDS011;46580;52.114;11.674;2022-12-24T04:58:36;22.40;;;11.43;;
60730;SDS011;46580;52.114;11.674;2022-12-24T05:01:05;24.57;;;10.67;;
60730;SDS011;46580;52.114;11.674;2022-12-24T05:03:31;19.60;;;10.03;;
60730;SDS011;46580;52.114;11.674;2022-12-24T05:06:01;17.23;;;9.30;;
60730;SDS011;46580;52.114;11.674;2022-12-24T05:08:27;20.20;;;10.43;;
60730;SDS011;46580;52.114;11.674;2022-12-24T05:10:56;24.20;;;11.77;;
60730;SDS011;46580;52.114;11.674;2022-12-24T05:13:22;20.30;;;10.23;;
60730;SDS011;46580;52.114;11.674;2022-12-24T05:15:48;20.73;;;10.90;;
60730;SDS011;46580;52.114;11.674;2022-12-24T05:18:13;18.73;;;9.30;;
60730;SDS011;46580;52.114;11.674;2022-12-24T05:20:42;22.47;;;11.27;;
60730;SDS011;46580;52.114;11.674;2022-12-24T05:23:08;22.00;;;10.70;;
60730;SDS011;46580;52.114;11.674;2022-12-24T05:25:58;21.13;;;10.73;;
60730;SDS011;46580;52.114;11.674;2022-12-24T05:28:42;23.70;;;11.60;;
60730;SDS011;46580;52.114;11.674;2022-12-24T05:31:07;26.23;;;11.57;;
60730;SDS011;46580;52.114;11.674;2022-12-24T05:33:32;26.00;;;11.93;;
60730;SDS011;46580;52.114;11.674;2022-12-24T05:35:58;25.60;;;12.60;;
60730;SDS011;46580;52.114;11.674;2022-12-24T05:38:23;22.37;;;11.47;;
60730;SDS011;46580;52.114;11.674;2022-12-24T05:40:48;24.00;;;12.33;;
60730;SDS011;46580;52.114;11.674;2022-12-24T05:43:14;28.37;;;12.47;;
60730;SDS011;46580;52.114;11.674;2022-12-24T05:45:39;20.87;;;10.33;;
60730;SDS011;46580;52.114;11.674;2022-12-24T05:48:04;24.50;;;9.43;;
60730;SDS011;46580;52.114;11.674;2022-12-24T05:50:32;24.87;;;11.07;;
60730;SDS011;46580;52.114;11.674;2022-12-24T05:52:57;23.47;;;10.23;;
60730;SDS011;46580;52.114;11.674;2022-12-24T05:55:23;23.50;;;9.73;;
60730;SDS011;46580;52.114;11.674;2022-12-24T05:57:48;23.33;;;11.30;;
60730;SDS011;46580;52.114;11.674;2022-12-24T06:00:13;19.33;;;8.90;;
60730;SDS011;46580;52.114;11.674;2022-12-24T06:02:39;23.40;;;9.90;;
60730;SDS011;46580;52.114;11.674;2022-12-24T06:05:04;15.87;;;8.13;;
60730;SDS011;46580;52.114;11.674;2022-12-24T06:07:30;19.70;;;7.73;;
60730;SDS011;46580;52.114;11.674;2022-12-24T06:09:55;16.80;;;8.07;;
60730;SDS011;46580;52.114;11.674;2022-12-24T06:12:21;12.83;;;6.60;;
60730;SDS011;46580;52.114;11.674;2022-12-24T06:14:46;16.37;;;6.93;;
60730;SDS011;46580;52.114;11.674;2022-12-24T06:17:11;18.40;;;6.13;;
60730;SDS011;46580;52.114;11.674;2022-12-24T06:19:37;9.90;;;5.03;;
60730;SDS011;46580;52.114;11.674;2022-12-24T06:22:02;18.47;;;5.50;;
60730;SDS011;46580;52.114;11.674;2022-12-24T06:24:27;15.97;;;6.10;;
60730;SDS011;46580;52.114;11.674;2022-12-24T06:26:52;10.07;;;5.27;;
60730;SDS011;46580;52.114;11.674;2022-12-24T06:29:18;14.47;;;5.37;;
60730;SDS011;46580;52.114;11.674;2022-12-24T06:31:43;12.37;;;4.90;;
60730;SDS011;46580;52.114;11.674;2022-12-24T06:34:09;10.20;;;5.47;;
60730;SDS011;46580;52.114;11.674;2022-12-24T06:36:34;15.53;;;6.20;;
60730;SDS011;46580;52.114;11.674;2022-12-24T06:38:59;12.97;;;4.93;;
60730;SDS011;46580;52.114;11.674;2022-12-24T06:41:25;14.37;;;5.00;;
60730;SDS011;46580;52.114;11.674;2022-12-24T06:43:51;9.87;;;4.73;;
60730;SDS011;46580;52.114;11.674;2022-12-24T06:46:17;14.37;;;5.37;;
60730;SDS011;46580;52.114;11.674;2022-12-24T06:48:44;17.43;;;4.83;;
60730;SDS011;46580;52.114;11.674;2022-12-24T06:51:10;14.30;;;5.70;;
60730;SDS011;46580;52.114;11.674;2022-12-24T06:53:37;15.37;;;5.87;;
60730;SDS011;46580;52.114;11.674;2022-12-24T06:56:07;10.87;;;4.90;;
60730;SDS011;46580;52.114;11.674;2022-12-24T06:58:34;7.90;;;3.93;;
60730;SDS011;46580;52.114;11.674;2022-12-24T07:01:00;11.87;;;4.60;;
60730;SDS011;46580;52.114;11.674;2022-12-24T07:03:27;10.23;;;4.40;;
60730;SDS011;46580;52.114;11.674;2022-12-24T07:05:53;13.03;;;4.73;;
60730;SDS011;46580;52.114;11.674;2022-12-24T07:08:18;7.73;;;4.13;;
60730;SDS011;46580;52.114;11.674;2022-12-24T07:10:44;9.40;;;3.80;;
60730;SDS011;46580;52.114;11.674;2022-12-24T07:13:09;8.40;;;3.97;;
60730;SDS011;46580;52.114;11.674;2022-12-24T07:15:34;7.57;;;4.67;;
60730;SDS011;46580;52.114;11.674;2022-12-24T07:17:59;7.47;;;4.37;;
60730;SDS011;46580;52.114;11.674;2022-12-24T07:20:25;11.60;;;4.50;;
60730;SDS011;46580;52.114;11.674;2022-12-24T07:22:50;11.17;;;4.77;;
60730;SDS011;46580;52.114;11.674;2022-12-24T07:25:15;15.60;;;4.80;;
60730;SDS011;46580;52.114;11.674;2022-12-24T07:27:41;16.20;;;6.33;;
60730;SDS011;46580;52.114;11.674;2022-12-24T07:30:07;17.20;;;4.93;;
60730;SDS011;46580;52.114;11.674;2022-12-24T07:32:33;19.10;;;6.13;;
60730;SDS011;46580;52.114;11.674;2022-12-24T07:34:59;15.00;;;4.47;;
60730;SDS011;46580;52.114;11.674;2022-12-24T07:37:25;15.03;;;5.43;;
60730;SDS011;46580;52.114;11.674;2022-12-24T07:39:52;13.97;;;4.67;;
60730;SDS011;46580;52.114;11.674;2022-12-24T07:42:17;14.23;;;5.13;;
60730;SDS011;46580;52.114;11.674;2022-12-24T07:44:42;10.17;;;5.00;;
60730;SDS011;46580;52.114;11.674;2022-12-24T07:47:08;16.83;;;4.80;;
60730;SDS011;46580;52.114;11.674;2022-12-24T07:49:33;17.47;;;5.50;;
60730;SDS011;46580;52.114;11.674;2022-12-24T07:52:00;15.80;;;5.40;;
60730;SDS011;46580;52.114;11.674;2022-12-24T07:54:25;20.10;;;5.93;;
60730;SDS011;46580;52.114;11.674;2022-12-24T07:56:51;13.80;;;5.10;;
60730;SDS011;46580;52.114;11.674;2022-12-24T07:59:16;17.43;;;5.23;;
60730;SDS011;46580;52.114;11.674;2022-12-24T08:01:42;16.43;;;5.57;;
60730;SDS011;46580;52.114;11.674;2022-12-24T08:04:07;21.73;;;5.87;;
60730;SDS011;46580;52.114;11.674;2022-12-24T08:06:32;18.00;;;5.70;;
60730;SDS011;46580;52.114;11.674;2022-12-24T08:08:58;14.10;;;5.33;;
60730;SDS011;46580;52.114;11.674;2022-12-24T08:11:23;16.63;;;5.13;;
60730;SDS011;46580;52.114;11.674;2022-12-24T08:13:48;14.27;;;5.43;;
60730;SDS011;46580;52.114;11.674;2022-12-24T08:16:14;13.30;;;4.90;;
60730;SDS011;46580;52.114;11.674;2022-12-24T08:18:39;14.47;;;5.27;;
60730;SDS011;46580;52.114;11.674;2022-12-24T08:21:06;18.37;;;5.07;;
60730;SDS011;46580;52.114;11.674;2022-12-24T08:23:32;15.93;;;4.67;;
60730;SDS011;46580;52.114;11.674;2022-12-24T08:25:58;14.57;;;5.30;;
60730;SDS011;46580;52.114;11.674;2022-12-24T08:28:23;19.67;;;5.17;;
60730;SDS011;46580;52.114;11.674;2022-12-24T08:30:49;20.93;;;5.97;;
60730;SDS011;46580;52.114;11.674;2022-12-24T08:33:15;12.97;;;4.80;;
60730;SDS011;46580;52.114;11.674;2022-12-24T08:35:46;21.97;;;6.37;;
60730;SDS011;46580;52.114;11.674;2022-12-24T08:38:12;18.50;;;4.77;;
60730;SDS011;46580;52.114;11.674;2022-12-24T08:40:38;17.03;;;4.67;;
60730;SDS011;46580;52.114;11.674;2022-12-24T08:43:03;12.07;;;5.07;;
60730;SDS011;46580;52.114;11.674;2022-12-24T08:45:28;12.87;;;5.03;;
60730;SDS011;46580;52.114;11.674;2022-12-24T08:47:54;13.37;;;5.10;;
60730;SDS011;46580;52.114;11.674;2022-12-24T08:50:19;20.63;;;4.83;;
60730;SDS011;46580;52.114;11.674;2022-12-24T08:52:44;15.37;;;4.27;;
60730;SDS011;46580;52.114;11.674;2022-12-24T08:55:10;17.07;;;5.37;;
60730;SDS011;46580;52.114;11.674;2022-12-24T08:57:36;20.70;;;5.00;;
60730;SDS011;46580;52.114;11.674;2022-12-24T09:00:05;21.60;;;4.90;;
60730;SDS011;46580;52.114;11.674;2022-12-24T09:02:32;11.20;;;4.33;;
60730;SDS011;46580;52.114;11.674;2022-12-24T09:04:57;18.73;;;4.90;;
60730;SDS011;46580;52.114;11.674;2022-12-24T09:07:24;17.90;;;5.33;;
60730;SDS011;46580;52.114;11.674;2022-12-24T09:09:52;13.40;;;4.17;;
60730;SDS011;46580;52.114;11.674;2022-12-24T09:12:21;16.97;;;5.13;;
60730;SDS011;46580;52.114;11.674;2022-12-24T09:14:49;20.17;;;4.27;;
60730;SDS011;46580;52.114;11.674;2022-12-24T09:17:16;14.47;;;4.73;;
60730;SDS011;46580;52.114;11.674;2022-12-24T09:19:42;13.03;;;4.83;;
60730;SDS011;46580;52.114;11.674;2022-12-24T09:22:07;17.60;;;4.57;;
60730;SDS011;46580;52.114;11.674;2022-12-24T09:24:34;16.03;;;4.23;;
60730;SDS011;46580;52.114;11.674;2022-12-24T09:27:00;15.93;;;4.37;;
60730;SDS011;46580;52.114;11.674;2022-12-24T09:29:28;20.27;;;4.67;;
60730;SDS011;46580;52.114;11.674;2022-12-24T09:31:54;14.57;;;4.50;;
60730;SDS011;46580;52.114;11.674;2022-12-24T09:34:23;15.80;;;4.80;;
60730;SDS011;46580;52.114;11.674;2022-12-24T09:36:50;17.90;;;4.37;;
60730;SDS011;46580;52.114;11.674;2022-12-24T09:39:18;16.00;;;4.60;;
60730;SDS011;46580;52.114;11.674;2022-12-24T09:52:56;16.10;;;4.17;;
60730;SDS011;46580;52.114;11.674;2022-12-24T09:55:31;19.70;;;4.33;;
60730;SDS011;46580;52.114;11.674;2022-12-24T09:58:00;15.20;;;4.37;;
60730;SDS011;46580;52.114;11.674;2022-12-24T10:00:30;13.13;;;4.27;;
60730;SDS011;46580;52.114;11.674;2022-12-24T10:02:59;17.30;;;4.00;;
60730;SDS011;46580;52.114;11.674;2022-12-24T10:05:40;14.43;;;4.17;;
60730;SDS011;46580;52.114;11.674;2022-12-24T10:11:22;12.87;;;4.03;;
60730;SDS011;46580;52.114;11.674;2022-12-24T10:13:56;17.07;;;4.87;;
60730;SDS011;46580;52.114;11.674;2022-12-24T10:24:31;15.37;;;4.10;;
60730;SDS011;46580;52.114;11.674;2022-12-24T10:27:13;22.33;;;4.33;;
60730;SDS011;46580;52.114;11.674;2022-12-24T10:29:41;15.27;;;3.87;;
60730;SDS011;46580;52.114;11.674;2022-12-24T10:34:37;18.83;;;3.80;;
60730;SDS011;46580;52.114;11.674;2022-12-24T10:40:10;16.00;;;3.63;;
60730;SDS011;46580;52.114;11.674;2022-12-24T10:42:44;14.60;;;4.70;;
60730;SDS011;46580;52.114;11.674;2022-12-24T10:45:14;17.03;;;3.87;;
60730;SDS011;46580;52.114;11.674;2022-12-24T10:47:45;14.70;;;3.67;;
60730;SDS011;46580;52.114;11.674;2022-12-24T10:56:10;13.07;;;3.73;;
60730;SDS011;46580;52.114;11.674;2022-12-24T10:58:44;13.90;;;3.37;;
60730;SDS011;46580;52.114;11.674;2022-12-24T11:01:14;16.70;;;4.27;;
60730;SDS011;46580;52.114;11.674;2022-12-24T11:03:40;18.90;;;4.13;;
60730;SDS011;46580;52.114;11.674;2022-12-24T11:06:15;24.10;;;4.33;;
60730;SDS011;46580;52.114;11.674;2022-12-24T11:08:45;11.33;;;3.83;;
60730;SDS011;46580;52.114;11.674;2022-12-24T11:11:15;16.87;;;4.87;;
60730;SDS011;46580;52.114;11.674;2022-12-24T11:13:44;13.63;;;3.73;;
60730;SDS011;46580;52.114;11.674;2022-12-24T11:16:20;18.70;;;4.43;;
60730;SDS011;46580;52.114;11.674;2022-12-24T11:18:49;15.93;;;3.90;;
60730;SDS011;46580;52.114;11.674;2022-12-24T11:23:53;18.73;;;5.13;;
60730;SDS011;46580;52.114;11.674;2022-12-24T11:26:27;15.80;;;4.53;;
60730;SDS011;46580;52.114;11.674;2022-12-24T11:31:42;19.87;;;4.73;;
60730;SDS011;46580;52.114;11.674;2022-12-24T11:34:21;13.73;;;4.40;;
60730;SDS011;46580;52.114;11.674;2022-12-24T11:36:52;11.10;;;4.33;;
60730;SDS011;46580;52.114;11.674;2022-12-24T11:39:30;18.73;;;4.77;;
60730;SDS011;46580;52.114;11.674;2022-12-24T11:42:06;10.43;;;3.57;;
60730;SDS011;46580;52.114;11.674;2022-12-24T11:44:47;17.17;;;4.23;;
60730;SDS011;46580;52.114;11.674;2022-12-24T11:47:14;7.63;;;3.53;;
60730;SDS011;46580;52.114;11.674;2022-12-24T11:49:39;17.20;;;4.17;;
60730;SDS011;46580;52.114;11.674;2022-12-24T11:52:15;12.07;;;3.67;;
60730;SDS011;46580;52.114;11.674;2022-12-24T11:54:56;15.03;;;4.17;;
60730;SDS011;46580;52.114;11.674;2022-12-24T12:00:30;17.17;;;4.60;;
60730;SDS011;46580;52.114;11.674;2022-12-24T12:02:56;8.73;;;3.20;;
60730;SDS011;46580;52.114;11.674;2022-12-24T12:05:27;14.57;;;4.07;;
60730;SDS011;46580;52.114;11.674;2022-12-24T12:07:58;17.00;;;3.93;;
60730;SDS011;46580;52.114;11.674;2022-12-24T12:10:35;9.20;;;4.67;;
60730;SDS011;46580;52.114;11.674;2022-12-24T12:13:10;11.60;;;4.10;;
60730;SDS011;46580;52.114;11.674;2022-12-24T12:18:31;7.67;;;3.47;;
60730;SDS011;46580;52.114;11.674;2022-12-24T12:21:10;9.97;;;3.40;;
60730;SDS011;46580;52.114;11.674;2022-12-24T12:23:43;8.63;;;3.10;;
60730;SDS011;46580;52.114;11.674;2022-12-24T12:28:58;10.10;;;3.10;;
60730;SDS011;46580;52.114;11.674;2022-12-24T12:36:44;8.37;;;3.27;;
60730;SDS011;46580;52.114;11.674;2022-12-24T12:39:13;11.53;;;3.43;;
60730;SDS011;46580;52.114;11.674;2022-12-24T12:50:19;7.53;;;2.73;;
60730;SDS011;46580;52.114;11.674;2022-12-24T12:53:14;9.30;;;2.47;;
60730;SDS011;46580;52.114;11.674;2022-12-24T12:56:07;8.00;;;2.47;;
60730;SDS011;46580;52.114;11.674;2022-12-24T12:58:37;8.57;;;2.17;;
60730;SDS011;46580;52.114;11.674;2022-12-24T13:01:10;8.20;;;2.20;;
60730;SDS011;46580;52.114;11.674;2022-12-24T13:06:45;7.43;;;2.30;;
60730;SDS011;46580;52.114;11.674;2022-12-24T13:12:33;3.77;;;2.03;;
60730;SDS011;46580;52.114;11.674;2022-12-24T13:20:54;7.83;;;2.23;;
60730;SDS011;46580;52.114;11.674;2022-12-24T13:23:20;3.10;;;1.57;;
60730;SDS011;46580;52.114;11.674;2022-12-24T13:25:51;4.70;;;2.07;;
60730;SDS011;46580;52.114;11.674;2022-12-24T13:30:47;4.83;;;1.93;;
60730;SDS011;46580;52.114;11.674;2022-12-24T13:36:01;7.63;;;2.30;;
60730;SDS011;46580;52.114;11.674;2022-12-24T13:38:41;4.33;;;2.03;;
60730;SDS011;46580;52.114;11.674;2022-12-24T13:44:30;5.77;;;1.90;;
60730;SDS011;46580;52.114;11.674;2022-12-24T13:46:57;4.80;;;2.10;;
60730;SDS011;46580;52.114;11.674;2022-12-24T13:54:47;4.27;;;1.60;;
60730;SDS011;46580;52.114;11.674;2022-12-24T14:05:38;5.03;;;1.70;;
60730;SDS011;46580;52.114;11.674;2022-12-24T14:08:12;2.50;;;1.47;;
60730;SDS011;46580;52.114;11.674;2022-12-24T14:10:41;8.33;;;1.87;;
60730;SDS011;46580;52.114;11.674;2022-12-24T14:16:17;3.30;;;1.47;;
60730;SDS011;46580;52.114;11.674;2022-12-24T14:21:29;4.03;;;1.63;;
60730;SDS011;46580;52.114;11.674;2022-12-24T14:23:58;4.07;;;1.40;;
60730;SDS011;46580;52.114;11.674;2022-12-24T14:26:29;2.23;;;1.27;;
60730;SDS011;46580;52.114;11.674;2022-12-24T14:29:05;2.60;;;1.20;;
60730;SDS011;46580;52.114;11.674;2022-12-24T14:31:48;2.73;;;1.27;;
60730;SDS011;46580;52.114;11.674;2022-12-24T14:34:15;1.50;;;1.17;;
60730;SDS011;46580;52.114;11.674;2022-12-24T14:36:41;2.13;;;1.13;;
60730;SDS011;46580;52.114;11.674;2022-12-24T14:39:09;3.47;;;1.50;;
60730;SDS011;46580;52.114;11.674;2022-12-24T14:50:06;3.50;;;1.10;;
60730;SDS011;46580;52.114;11.674;2022-12-24T14:53:10;3.27;;;1.87;;
60730;SDS011;46580;52.114;11.674;2022-12-24T14:55:39;4.07;;;1.20;;
60730;SDS011;46580;52.114;11.674;2022-12-24T14:58:52;3.03;;;1.43;;
60730;SDS011;46580;52.114;11.674;2022-12-24T15:01:02;2.47;;;1.40;;
60730;SDS011;46580;52.114;11.674;2022-12-24T15:03:42;4.43;;;1.57;;
60730;SDS011;46580;52.114;11.674;2022-12-24T15:06:08;2.27;;;1.20;;
60730;SDS011;46580;52.114;11.674;2022-12-24T15:08:37;3.17;;;1.43;;
60730;SDS011;46580;52.114;11.674;2022-12-24T15:11:06;7.73;;;2.07;;
60730;SDS011;46580;52.114;11.674;2022-12-24T15:13:40;4.07;;;1.53;;
60730;SDS011;46580;52.114;11.674;2022-12-24T15:16:12;2.30;;;1.37;;
60730;SDS011;46580;52.114;11.674;2022-12-24T15:18:46;3.47;;;1.20;;
60730;SDS011;46580;52.114;11.674;2022-12-24T15:21:17;4.87;;;1.70;;
60730;SDS011;46580;52.114;11.674;2022-12-24T15:23:49;2.17;;;1.23;;
60730;SDS011;46580;52.114;11.674;2022-12-24T15:28:47;5.27;;;1.70;;
60730;SDS011;46580;52.114;11.674;2022-12-24T15:31:16;2.97;;;1.20;;
60730;SDS011;46580;52.114;11.674;2022-12-24T15:33:45;5.80;;;1.20;;
60730;SDS011;46580;52.114;11.674;2022-12-24T15:36:12;4.50;;;1.17;;
60730;SDS011;46580;52.114;11.674;2022-12-24T15:38:40;4.80;;;1.30;;
60730;SDS011;46580;52.114;11.674;2022-12-24T15:41:14;5.17;;;1.50;;
60730;SDS011;46580;52.114;11.674;2022-12-24T15:43:43;3.83;;;1.30;;
60730;SDS011;46580;52.114;11.674;2022-12-24T15:46:16;2.60;;;1.20;;
60730;SDS011;46580;52.114;11.674;2022-12-24T15:48:46;5.00;;;1.50;;
60730;SDS011;46580;52.114;11.674;2022-12-24T15:51:18;3.10;;;1.60;;
60730;SDS011;46580;52.114;11.674;2022-12-24T15:53:52;3.53;;;1.53;;
60730;SDS011;46580;52.114;11.674;2022-12-24T15:56:33;2.77;;;1.47;;
60730;SDS011;46580;52.114;11.674;2022-12-24T15:59:11;3.20;;;1.63;;
60730;SDS011;46580;52.114;11.674;2022-12-24T16:01:49;4.37;;;1.97;;
60730;SDS011;46580;52.114;11.674;2022-12-24T16:04:16;4.77;;;2.20;;
60730;SDS011;46580;52.114;11.674;2022-12-24T16:06:53;4.90;;;3.17;;
60730;SDS011;46580;52.114;11.674;2022-12-24T16:11:55;4.33;;;2.40;;
60730;SDS011;46580;52.114;11.674;2022-12-24T16:14:20;10.37;;;3.33;;
60730;SDS011;46580;52.114;11.674;2022-12-24T16:16:48;6.93;;;3.13;;
60730;SDS011;46580;52.114;11.674;2022-12-24T16:19:28;4.43;;;2.10;;
60730;SDS011;46580;52.114;11.674;2022-12-24T16:21:59;9.87;;;2.00;;
60730;SDS011;46580;52.114;11.674;2022-12-24T16:24:49;5.30;;;1.83;;
60730;SDS011;46580;52.114;11.674;2022-12-24T16:27:16;5.67;;;2.00;;
60730;SDS011;46580;52.114;11.674;2022-12-24T16:29:44;9.87;;;2.20;;
60730;SDS011;46580;52.114;11.674;2022-12-24T16:32:31;3.60;;;1.90;;
60730;SDS011;46580;52.114;11.674;2022-12-24T16:34:58;6.23;;;2.40;;
60730;SDS011;46580;52.114;11.674;2022-12-24T16:37:26;5.70;;;1.90;;
60730;SDS011;46580;52.114;11.674;2022-12-24T16:39:52;3.23;;;1.40;;
60730;SDS011;46580;52.114;11.674;2022-12-24T16:42:18;5.90;;;1.90;;
60730;SDS011;46580;52.114;11.674;2022-12-24T16:45:02;7.53;;;1.67;;
60730;SDS011;46580;52.114;11.674;2022-12-24T16:47:29;5.30;;;1.80;;